Flight Track Log - Related Links

Times and Time Zones

All times are in EDT time to prevent confusion due to time zone crossing. See the AAY825 flight status page for this flight to view local times or setup timezone preferences in your user account.

Time Position Orientation Groundspeed Altitude Reporting Facility
EDT Latitude Longitude Course Direction KTS MPH feet Rate Location/Type
Mon 11:42:52 AM 41.5444 -93.6417 87° East 150 173 1,400  Level Minneapolis Center
Mon 11:44:02 AM 41.5469 -93.5728 87° East 206 237 3,600 2,000 Climbing Minneapolis Center
Mon 11:45:04 AM 41.4781 -93.5300 155° Southeast 270 311 5,800 2,419 Climbing Minneapolis Center
Mon 11:46:06 AM 41.4033 -93.4839 155° Southeast 293 337 8,600 2,323 Climbing Minneapolis Center
Mon 11:47:08 AM 41.3322 -93.4353 153° Southeast 310 357 10,600 1,790 Climbing Minneapolis Center
Mon 11:48:10 AM 41.2244 -93.3558 151° Southeast 349 402 12,300 2,032 Climbing Minneapolis Center
Mon 11:49:12 AM 41.1244 -93.2847 152° Southeast 391 450 14,800 2,224 Climbing Minneapolis Center
Mon 11:50:06 AM 41.0422 -93.2267 152° Southeast 406 467 16,600 1,862 Climbing Chicago Center
Mon 11:51:08 AM 40.9125 -93.1344 152° Southeast 437 503 18,400 1,790 Climbing Chicago Center
Mon 11:52:10 AM 40.7997 -93.0536 152° Southeast 457 526 20,300 1,728 Climbing Chicago Center
Mon 11:53:13 AM 40.6836 -92.9731 152° Southeast 469 540 22,000 1,584 Climbing Chicago Center
Mon 11:54:15 AM 40.5650 -92.8889 152° Southeast 481 554 23,600 1,403 Climbing Chicago Center
Mon 11:55:17 AM 40.4472 -92.7947 149° Southeast 498 573 24,900 1,161 Climbing Chicago Center
Mon 11:56:19 AM 40.3419 -92.6431 132° Southeast 517 595 26,000 1,258 Climbing Chicago Center
Mon 11:57:21 AM 40.2467 -92.4989 131° Southeast 519 597 27,500 1,403 Climbing Chicago Center
Mon 11:58:23 AM 40.1286 -92.3222 131° Southeast 534 615 28,900 1,306 Climbing Chicago Center
Mon 11:59:25 AM 40.0303 -92.1772 132° Southeast 534 615 30,200 1,016 Climbing Chicago Center
Mon 12:00:27 PM 39.9314 -92.0314 131° Southeast 537 618 31,000 486 Climbing Chicago Center
Mon 12:01:53 PM 39.7908 -91.8217 131° Southeast 550 633 31,400 449 Climbing Kansas City Center
Mon 12:02:54 PM 39.6883 -91.6725 132° Southeast 553 636 32,100 677 Climbing Kansas City Center
Mon 12:03:57 PM 39.5708 -91.5422 139° Southeast 556 640 32,800 435 Climbing Kansas City Center
Mon 12:04:58 PM 39.4197 -91.4125 146° Southeast 556 640 33,000 96 Climbing Kansas City Center
Mon 12:06:02 PM 39.2944 -91.2992 145° Southeast 555 639 33,000  Level Kansas City Center
Mon 12:07:02 PM 39.1711 -91.1850 144° Southeast 552 635 33,000  Level Kansas City Center
Mon 12:08:06 PM 39.0450 -91.0714 145° Southeast 551 634 33,000  Level Kansas City Center
Mon 12:09:06 PM 38.9206 -90.9603 145° Southeast 551 634 33,000  Level Kansas City Center
Mon 12:10:10 PM 38.7703 -90.8267 145° Southeast 551 634 33,000  Level Kansas City Center
Mon 12:11:11 PM 38.6447 -90.7167 146° Southeast 551 634 33,000  Level Kansas City Center
Mon 12:12:14 PM 38.5075 -90.5917 145° Southeast 548 631 33,000  Level Kansas City Center
Mon 12:13:15 PM 38.4003 -90.4986 146° Southeast 547 629 33,000  Level Kansas City Center
Mon 12:14:19 PM 38.2469 -90.3650 146° Southeast 554 638 33,000  Level Kansas City Center
Mon 12:15:20 PM 38.1231 -90.2567 145° Southeast 551 634 33,000  Level Kansas City Center
Mon 12:16:24 PM 37.9978 -90.1481 146° Southeast 548 631 33,000  Level Kansas City Center
Mon 12:17:25 PM 37.8658 -90.0350 146° Southeast 547 629 33,000  Level Kansas City Center
Mon 12:18:26 PM 37.7483 -89.9342 146° Southeast 544 626 33,000  Level Kansas City Center
Mon 12:19:30 PM 37.5981 -89.8033 145° Southeast 545 627 33,000  Level Kansas City Center
Mon 12:20:31 PM 37.4839 -89.7039 145° Southeast 543 625 33,000  Level Kansas City Center
Mon 12:21:22 PM 37.3600 -89.6003 146° Southeast 543 625 33,000  Level Memphis Center
Mon 12:22:24 PM 37.2358 -89.4933 146° Southeast 543 625 33,000  Level Memphis Center
Mon 12:23:26 PM 37.1125 -89.3889 146° Southeast 538 619 33,000  Level Memphis Center
Mon 12:24:28 PM 36.9886 -89.2839 146° Southeast 538 619 33,000  Level Memphis Center
Mon 12:25:30 PM 36.8656 -89.1786 146° Southeast 537 618 33,000  Level Memphis Center
Mon 12:26:32 PM 36.7417 -89.0750 146° Southeast 535 616 33,000  Level Memphis Center
Mon 12:27:34 PM 36.6169 -88.9714 146° Southeast 534 615 33,000  Level Memphis Center
Mon 12:28:35 PM 36.4928 -88.8689 146° Southeast 534 615 33,000  Level Memphis Center
Mon 12:29:37 PM 36.3697 -88.7669 146° Southeast 530 610 33,000  Level Memphis Center
Mon 12:30:39 PM 36.2225 -88.6464 147° Southeast 529 609 33,000  Level Memphis Center
Mon 12:31:41 PM 36.1003 -88.5464 147° Southeast 528 608 33,000  Level Memphis Center
Mon 12:32:43 PM 35.9769 -88.4467 147° Southeast 527 606 33,000  Level Memphis Center
Mon 12:33:45 PM 35.8544 -88.3475 147° Southeast 527 606 33,000  Level Memphis Center
Mon 12:34:46 PM 35.7306 -88.2483 147° Southeast 527 606 33,000  Level Memphis Center
Mon 12:35:48 PM 35.5994 -88.1394 146° Southeast 527 606 33,000  Level Memphis Center
Mon 12:36:50 PM 35.4758 -88.0422 147° Southeast 526 605 33,000  Level Memphis Center
Mon 12:37:52 PM 35.3556 -87.9458 147° Southeast 525 604 33,000  Level Memphis Center
Mon 12:38:54 PM 35.2336 -87.8489 147° Southeast 525 604 33,000  Level Memphis Center
Mon 12:39:56 PM 35.1103 -87.7517 147° Southeast 525 604 33,000  Level Memphis Center
Mon 12:40:58 PM 34.9631 -87.6339 147° Southeast 525 604 33,000  Level Memphis Center
Mon 12:42:00 PM 34.8414 -87.5383 147° Southeast 524 603 33,000  Level Memphis Center
Mon 12:43:01 PM 34.7192 -87.4425 147° Southeast 522 601 33,000  Level Memphis Center
Mon 12:44:03 PM 34.5975 -87.3453 147° Southeast 520 598 33,000  Level Memphis Center
Mon 12:45:05 PM 34.4728 -87.2486 147° Southeast 517 595 33,000  Level Memphis Center
Mon 12:46:07 PM 34.3514 -87.1556 148° Southeast 517 595 33,000  Level Memphis Center
Mon 12:47:09 PM 34.2303 -87.0617 147° Southeast 517 595 33,000  Level Memphis Center
Mon 12:48:11 PM 34.1103 -86.9689 147° Southeast 516 594 33,000  Level Memphis Center
Mon 12:49:13 PM 33.9914 -86.8781 148° Southeast 511 588 33,000  Level Memphis Center
Mon 12:50:12 PM 33.8639 -86.7806 148° Southeast 510 587 33,000  Level Atlanta Center
Mon 12:51:12 PM 33.7450 -86.6894 147° Southeast 510 587 33,000  Level Atlanta Center
Mon 12:52:12 PM 33.6236 -86.6008 149° Southeast 510 587 33,000  Level Atlanta Center
Mon 12:53:12 PM 33.5022 -86.5100 148° Southeast 510 587 33,000  Level Atlanta Center
Mon 12:54:12 PM 33.3769 -86.4094 146° Southeast 505 581 33,000  Level Atlanta Center
Mon 12:55:12 PM 33.2575 -86.3217 148° Southeast 505 581 33,000  Level Atlanta Center
Mon 12:56:12 PM 33.1381 -86.2319 148° Southeast 505 581 33,000  Level Atlanta Center
Mon 12:57:12 PM 33.0206 -86.1447 148° Southeast 505 581 33,000  Level Atlanta Center
Mon 12:58:12 PM 32.9011 -86.0478 146° Southeast 509 586 33,000  Level Atlanta Center
Mon 12:59:12 PM 32.7878 -85.9711 150° Southeast 504 580 33,000  Level Atlanta Center
Mon 01:00:12 PM 32.6700 -85.8844 148° Southeast 504 580 33,000  Level Atlanta Center
Mon 01:01:12 PM 32.5522 -85.7983 148° Southeast 504 580 33,000  Level Atlanta Center
Mon 01:02:12 PM 32.4344 -85.7097 148° Southeast 504 580 33,000  Level Atlanta Center
Mon 01:03:12 PM 32.3147 -85.6242 149° Southeast 499 574 33,000  Level Atlanta Center
Mon 01:04:12 PM 32.1967 -85.5386 148° Southeast 499 574 33,000  Level Atlanta Center
Mon 01:05:12 PM 32.0933 -85.4633 148° Southeast 499 574 33,000  Level Atlanta Center
Mon 01:06:12 PM 31.9772 -85.3806 149° Southeast 494 568 33,000  Level Atlanta Center
Mon 01:07:04 PM 31.8617 -85.3019 150° Southeast 490 564 33,000  Level Jacksonville Center
Mon 01:08:04 PM 31.7486 -85.2158 147° Southeast 482 555 33,000  Level Jacksonville Center
Mon 01:09:04 PM 31.6350 -85.1375 150° Southeast 482 555 33,000  Level Jacksonville Center
Mon 01:10:04 PM 31.5319 -85.0619 148° Southeast 482 555 33,000  Level Jacksonville Center
Mon 01:11:04 PM 31.4186 -84.9839 150° Southeast 482 555 33,000  Level Jacksonville Center
Mon 01:12:04 PM 31.3050 -84.9033 149° Southeast 477 549 33,000  Level Jacksonville Center
Mon 01:13:04 PM 31.1892 -84.8281 151° Southeast 477 549 33,000  Level Jacksonville Center
Mon 01:14:04 PM 31.0714 -84.7481 150° Southeast 483 556 33,000  Level Jacksonville Center
Mon 01:15:04 PM 30.9597 -84.6708 149° Southeast 483 556 33,000  Level Jacksonville Center
Mon 01:16:04 PM 30.8461 -84.5936 150° Southeast 477 549 33,000  Level Jacksonville Center
Mon 01:17:04 PM 30.7364 -84.5167 149° Southeast 477 549 33,000  Level Jacksonville Center
Mon 01:18:04 PM 30.6225 -84.4422 151° Southeast 472 543 33,000 -50 Level Jacksonville Center
Mon 01:19:04 PM 30.5086 -84.3608 148° Southeast 472 543 32,900  Descending Jacksonville Center
Mon 01:20:04 PM 30.3947 -84.2844 150° Southeast 472 543 33,000  Climbing Jacksonville Center
Mon 01:21:04 PM 30.2847 -84.2108 150° Southeast 472 543 32,900  Descending Jacksonville Center
Mon 01:22:04 PM 30.1728 -84.1372 150° Southeast 472 543 33,000 50 Climbing Jacksonville Center
Mon 01:23:04 PM 30.0628 -84.0639 150° Southeast 461 531 33,000  Level Jacksonville Center
Mon 01:24:04 PM 29.9508 -83.9906 150° Southeast 461 531 33,000  Level Jacksonville Center
Mon 01:25:04 PM 29.8386 -83.9175 151° Southeast 461 531 33,000  Level Jacksonville Center
Mon 01:26:04 PM 29.7264 -83.8444 151° Southeast 461 531 33,000  Level Jacksonville Center
Mon 01:27:04 PM 29.6164 -83.7694 149° Southeast 461 531 33,000 -450 Level Jacksonville Center
Mon 01:28:04 PM 29.5042 -83.6944 150° Southeast 461 531 32,100 -1,300 Descending Jacksonville Center
Mon 01:29:04 PM 29.3772 -83.6122 151° Southeast 461 531 30,400 -1,800 Descending Jacksonville Center
Mon 01:30:04 PM 29.2650 -83.5378 150° Southeast 466 536 28,500 -2,250 Descending Jacksonville Center
Mon 01:31:04 PM 29.1525 -83.4633 150° Southeast 466 536 25,900 -2,300 Descending Jacksonville Center
Mon 01:32:04 PM 29.0400 -83.3936 152° Southeast 466 536 23,900 -2,000 Descending Jacksonville Center
Mon 01:33:04 PM 28.9361 -83.3267 151° Southeast 452 520 21,900 -2,000 Descending Jacksonville Center
Mon 01:34:04 PM 28.8361 -83.2622 151° Southeast 439 505 19,900 -2,000 Descending Jacksonville Center
Mon 01:35:04 PM 28.7403 -83.2028 151° Southeast 415 478 17,900 -1,923 Descending Jacksonville Center
Mon 01:36:40 PM 28.5833 -83.1167 154° Southeast 387 445 14,900 -1,808 Descending Tampa TRACON
Mon 01:37:40 PM 28.5000 -83.0500 145° Southeast 378 435 13,200 -1,368 Descending Tampa TRACON
Mon 01:38:34 PM 28.4167 -83.0000 152° Southeast 341 392 12,300 -1,105 Descending Tampa TRACON
Mon 01:39:34 PM 28.3333 -82.9833 170° South 296 341 11,100 -1,350 Descending Tampa TRACON
Mon 01:40:34 PM 28.2500 -82.9500 161° South 304 350 9,600 -1,488 Descending Tampa TRACON
Mon 01:41:35 PM 28.1833 -82.9000 147° Southeast 301 346 8,100 -1,600 Descending Tampa TRACON
Mon 01:42:34 PM 28.1167 -82.8500 147° Southeast 293 337 6,400 -1,866 Descending Tampa TRACON
Mon 01:43:34 PM 28.0500 -82.8000 146° Southeast 284 327 4,400 -1,700 Descending Tampa TRACON
Mon 01:44:34 PM 27.9833 -82.7500 146° Southeast 269 310 3,000 -900 Descending Tampa TRACON
Mon 01:45:34 PM 27.9167 -82.7333 168° South 258 297 2,600 -700 Descending Tampa TRACON
Mon 01:46:34 PM 27.8667 -82.7333 180° South 182 209 1,600 -700 Descending Tampa TRACON
Mon 01:47:34 PM 27.8333 -82.7000 139° Southeast 169 194 1,200 -600 Descending Tampa TRACON
Mon 01:48:34 PM 27.8833 -82.6833 16° North 141 162 400 -800 Descending Tampa TRACON

Login

Don't have an account? Register now (free) for customized features, flight alerts, and more!